Flight Track Log - Related Links

Times and Time Zones

All times are in EDT time to prevent confusion due to time zone crossing. See the UAL4530 flight status page for this flight to view local times or setup timezone preferences in your user account.

Time Position Orientation Groundspeed Altitude Reporting Facility
EDT Latitude Longitude Course Direction KTS km/h meters Rate Location/Type
Sun 12:43:06 40.6411 -74.1925 270° West 176 327 549  Level New York Center
Sun 12:44:04 40.6394 -74.2553 268° West 237 439 1,097 604 Climbing New York Center
Sun 12:45:04 40.6594 -74.3492 286° West 256 475 1,737 657 Climbing New York Center
Sun 12:46:00 40.7500 -74.7003 276° West  Level FlightAware Approximate
Sun 12:46:12 40.6833 -74.4500 287° West 277 513 2,499  Level New York TRACON
Sun 12:47:00 40.7607 -74.8387 276° West  Level FlightAware Approximate
Sun 12:47:12 40.7000 -74.5500 282° West 284 526 3,048  Level New York TRACON
Sun 12:48:00 40.7833 -74.9728 270° West  Level FlightAware Approximate
Sun 12:48:05 40.7206 -74.6564 284° West 326 604 3,261  Level New York Center
Sun 12:49:06 40.7397 -74.7669 283° West 337 624 3,810 378 Climbing New York Center
Sun 12:50:06 40.7606 -74.8917 282° West 343 636 4,023 279 Climbing New York Center
Sun 12:51:04 40.7836 -75.0081 285° West 364 674 4,359 354 Climbing New York Center
Sun 12:52:05 40.7992 -75.1517 278° West 364 674 4,724 345 Climbing New York Center
Sun 12:53:06 40.7794 -75.2847 259° West 364 674 5,060 333 Climbing New York Center
Sun 12:54:06 40.7536 -75.4172 256° West 372 689 5,395 302 Climbing New York Center
Sun 12:55:07 40.7069 -75.5400 243° Southwest 377 698 5,669 279 Climbing New York Center
Sun 12:56:04 40.6650 -75.6492 243° Southwest 384 711 5,944 292 Climbing New York Center
Sun 12:57:06 40.6203 -75.7744 245° Southwest 384 711 6,248 300 Climbing New York Center
Sun 12:58:06 40.5733 -75.8967 243° Southwest 384 711 6,553 320 Climbing New York Center
Sun 12:59:06 40.5217 -76.0267 242° Southwest 389 721 6,888 326 Climbing New York Center
Sun 13:00:04 40.4744 -76.1486 243° Southwest 389 721 7,193 326 Climbing New York Center
Sun 13:01:04 40.4272 -76.2731 244° Southwest 384 711 7,529 393 Climbing New York Center
Sun 13:02:05 40.3819 -76.3922 244° Southwest 384 711 7,986 423 Climbing New York Center
Sun 13:03:05 40.3389 -76.5058 244° Southwest 368 681 8,382 363 Climbing New York Center
Sun 13:04:06 40.2939 -76.6164 242° Southwest 356 660 8,717 338 Climbing New York Center
Sun 13:05:04 40.2508 -76.7269 243° Southwest 350 649 9,053 356 Climbing New York Center
Sun 13:06:04 40.2056 -76.8372 242° Southwest 344 637 9,418 342 Climbing New York Center
Sun 13:07:07 40.1606 -76.9419 241° Southwest 344 637 9,754 347 Climbing New York Center
Sun 13:08:05 40.1125 -77.0625 243° Southwest 338 626 10,119 307 Climbing New York Center
Sun 13:09:06 40.0692 -77.1700 242° Southwest 338 626 10,363 121 Climbing New York Center
Sun 13:10:06 40.0233 -77.2850 243° Southwest 343 636 10,363 135 Level New York Center
Sun 13:13:09 39.9631 -77.6658 258° West 375 695 10,912 151 Climbing Cleveland Center
Sun 13:14:09 39.9683 -77.7983 273° West 368 681 10,973 30 Climbing Cleveland Center
Sun 13:15:09 39.9717 -77.9283 272° West 363 673 10,973  Level Cleveland Center
Sun 13:16:09 39.9767 -78.0636 273° West 363 673 10,973  Level Cleveland Center
Sun 13:17:09 39.9797 -78.1989 272° West 368 681 10,973  Level Cleveland Center
Sun 13:18:09 39.9786 -78.3478 269° West 374 692 10,973  Level Cleveland Center
Sun 13:19:09 39.9853 -78.4778 274° West 369 684 10,973  Level Cleveland Center
Sun 13:20:09 39.9853 -78.6050 270° West 364 674 10,973  Level Cleveland Center
Sun 13:21:09 39.9897 -78.7350 273° West 364 674 10,973  Level Cleveland Center
Sun 13:22:09 39.9939 -78.8650 272° West 364 674 10,973  Level Cleveland Center
Sun 13:23:09 39.9978 -78.9922 272° West 364 674 10,973  Level Cleveland Center
Sun 13:24:09 39.9994 -79.1222 271° West 364 674 10,973  Level Cleveland Center
Sun 13:25:09 40.0031 -79.2525 272° West 364 674 10,973  Level Cleveland Center
Sun 13:26:09 40.0044 -79.3825 271° West 364 674 10,973  Level Cleveland Center
Sun 13:27:09 40.0058 -79.5181 271° West 364 674 10,973  Level Cleveland Center
Sun 13:28:09 40.0092 -79.6533 272° West 364 674 10,973  Level Cleveland Center
Sun 13:29:09 40.0103 -79.7861 271° West 364 674 10,973  Level Cleveland Center
Sun 13:30:09 40.0111 -79.9217 271° West 364 674 10,973  Level Cleveland Center
Sun 13:31:09 40.0139 -80.0600 272° West 369 684 10,973  Level Cleveland Center
Sun 13:32:09 40.0144 -80.1928 270° West 369 684 10,973  Level Cleveland Center
Sun 13:33:09 40.0147 -80.3311 270° West 369 684 10,973  Level Cleveland Center
Sun 13:34:09 40.0169 -80.4611 271° West 374 692 10,973  Level Cleveland Center
Sun 13:35:09 40.0192 -80.5911 271° West 362 671 10,973  Level Cleveland Center
Sun 13:36:09 40.0192 -80.7131 270° West 355 658 10,973  Level Cleveland Center
Sun 13:37:09 40.0189 -80.8297 270° West 342 634 10,973  Level Cleveland Center
Sun 13:38:09 40.0186 -80.9464 270° West 331 613 10,973  Level Cleveland Center
Sun 13:40:15 40.0106 -81.1883 268° West 325 602 10,973  Level Indianapolis Center
Sun 13:41:17 40.0100 -81.3164 270° West 345 639 10,973  Level Indianapolis Center
Sun 13:42:19 40.0069 -81.4456 268° West 353 653 10,973  Level Indianapolis Center
Sun 13:43:21 40.0036 -81.5800 268° West 363 673 10,973  Level Indianapolis Center
Sun 13:44:22 40.0014 -81.7169 269° West 371 687 10,973 -15 Level Indianapolis Center
Sun 13:45:24 39.9989 -81.8567 269° West 366 678 10,942 -15 Descending Indianapolis Center
Sun 13:46:27 39.9953 -81.9875 268° West 359 665 10,942 15 Level Indianapolis Center
Sun 13:47:28 39.9919 -82.1139 268° West 351 650 10,973 15 Climbing Indianapolis Center
Sun 13:48:30 39.9892 -82.2394 268° West 345 639 10,973  Level Indianapolis Center
Sun 13:49:32 39.9856 -82.3869 268° West 347 642 10,973  Level Indianapolis Center
Sun 13:50:33 39.9814 -82.5156 268° West 351 650 10,973  Level Indianapolis Center
Sun 13:51:35 39.9783 -82.6514 268° West 369 684 10,973  Level Indianapolis Center
Sun 13:52:37 39.9731 -82.7919 267° West 381 705 10,973 -15 Level Indianapolis Center
Sun 13:53:39 39.9689 -82.9367 268° West 396 734 10,942  Descending Indianapolis Center
Sun 13:54:41 39.9647 -83.0822 268° West 399 739 10,973 15 Climbing Indianapolis Center
Sun 13:55:42 39.9619 -83.2294 269° West 404 748 10,973  Level Indianapolis Center
Sun 13:56:44 39.9572 -83.3983 268° West 402 745 10,973  Level Indianapolis Center
Sun 13:57:46 39.9511 -83.5392 267° West 397 735 10,973  Level Indianapolis Center
Sun 13:58:48 39.9456 -83.6806 267° West 396 734 10,973  Level Indianapolis Center
Sun 13:59:50 39.9403 -83.8239 267° West 396 734 10,973  Level Indianapolis Center
Sun 14:00:52 39.9344 -83.9703 267° West 401 742 10,973  Level Indianapolis Center
Sun 14:01:53 39.9286 -84.1144 267° West 398 737 10,973  Level Indianapolis Center
Sun 14:02:55 39.9214 -84.2853 267° West 401 742 10,973 -15 Level Indianapolis Center
Sun 14:03:57 39.9150 -84.4319 267° West 403 747 10,942  Descending Indianapolis Center
Sun 14:04:59 39.9083 -84.5811 267° West 411 761 10,973 15 Climbing Indianapolis Center
Sun 14:06:01 39.9017 -84.7314 267° West 412 763 10,973  Level Indianapolis Center
Sun 14:07:02 39.8947 -84.8808 267° West 412 763 10,973  Level Indianapolis Center
Sun 14:08:04 39.8867 -85.0464 266° West 411 761 10,973  Level Indianapolis Center
Sun 14:09:06 39.8797 -85.1956 267° West 410 760 10,973  Level Indianapolis Center
Sun 14:10:08 39.8711 -85.3406 266° West 403 747 10,973  Level Indianapolis Center
Sun 14:11:10 39.8644 -85.4861 267° West 401 742 10,973  Level Indianapolis Center
Sun 14:12:12 39.8561 -85.6294 266° West 397 735 10,973  Level Indianapolis Center
Sun 14:13:13 39.8519 -85.7781 268° West 406 752 10,973  Level Indianapolis Center
Sun 14:14:15 39.8547 -85.9250 271° West 407 753 10,973  Level Indianapolis Center
Sun 14:15:17 39.8564 -86.0986 271° West 412 763 10,973  Level Indianapolis Center
Sun 14:16:19 39.8694 -86.2450 277° West 413 764 10,973  Level Indianapolis Center
Sun 14:17:21 39.8903 -86.3897 281° West 414 766 10,973  Level Indianapolis Center
Sun 14:18:22 39.9114 -86.5361 281° West 413 764 10,973  Level Indianapolis Center
Sun 14:19:24 39.9308 -86.6811 280° West 408 756 10,973  Level Indianapolis Center
Sun 14:20:26 39.9422 -86.8578 275° West 419 776 10,973  Level Indianapolis Center
Sun 14:21:28 39.9392 -87.0106 269° West 422 782 10,973  Level Indianapolis Center
Sun 14:22:30 39.9344 -87.1658 268° West 425 787 10,973  Level Indianapolis Center
Sun 14:23:32 39.9306 -87.3214 268° West 427 790 10,973  Level Indianapolis Center
Sun 14:24:34 39.9250 -87.4781 267° West 430 797 10,973  Level Indianapolis Center
Sun 14:25:35 39.9203 -87.6347 268° West 431 798 10,973  Level Indianapolis Center
Sun 14:26:37 39.9153 -87.7914 268° West 430 797 10,973  Level Indianapolis Center
Sun 14:27:39 39.9097 -87.9739 268° West 431 798 10,973  Level Indianapolis Center
Sun 14:28:32 39.9044 -88.1086 267° West 429 795 10,973  Level Kansas City Center
Sun 14:29:34 39.8992 -88.2639 268° West 428 793 10,973  Level Kansas City Center
Sun 14:30:36 39.8925 -88.4178 267° West 428 793 10,973  Level Kansas City Center
Sun 14:31:38 39.8889 -88.5675 268° West 420 777 10,973  Level Kansas City Center
Sun 14:32:40 39.8825 -88.7183 267° West 416 771 10,973  Level Kansas City Center
Sun 14:33:42 39.8756 -88.8697 267° West 418 774 10,973  Level Kansas City Center
Sun 14:34:44 39.8689 -89.0239 267° West 423 784 10,973  Level Kansas City Center
Sun 14:35:46 39.8614 -89.2092 267° West 426 789 10,973  Level Kansas City Center
Sun 14:36:48 39.8539 -89.3631 266° West 426 789 10,973  Level Kansas City Center
Sun 14:37:50 39.8469 -89.5156 267° West 422 782 10,973  Level Kansas City Center
Sun 14:38:52 39.8397 -89.6669 266° West 420 777 10,973  Level Kansas City Center
Sun 14:39:54 39.8406 -89.8158 270° West 414 766 10,973  Level Kansas City Center
Sun 14:40:56 39.8428 -89.9633 271° West 410 760 10,973  Level Kansas City Center
Sun 14:41:58 39.8431 -90.1094 270° West 406 752 10,973  Level Kansas City Center
Sun 14:43:00 39.8447 -90.2906 271° West 411 761 10,973  Level Kansas City Center
Sun 14:44:02 39.8461 -90.4478 271° West 423 784 10,973  Level Kansas City Center
Sun 14:45:04 39.8475 -90.5983 271° West 422 782 10,973  Level Kansas City Center
Sun 14:46:06 39.8467 -90.7489 270° West 416 771 10,973  Level Kansas City Center
Sun 14:47:08 39.8472 -90.8981 270° West 415 769 10,973  Level Kansas City Center
Sun 14:48:10 39.8481 -91.0522 270° West 417 772 10,973  Level Kansas City Center
Sun 14:49:12 39.8472 -91.2047 270° West 420 777 10,973  Level Kansas City Center
Sun 14:50:14 39.8400 -91.3869 267° West 421 779 10,973  Level Kansas City Center
Sun 14:51:16 39.8283 -91.5367 264° West 420 777 10,973  Level Kansas City Center
Sun 14:52:18 39.8172 -91.6869 265° West 419 776 10,973  Level Kansas City Center
Sun 14:53:20 39.8067 -91.8364 265° West 419 776 10,973  Level Kansas City Center
Sun 14:54:22 39.7953 -91.9856 264° West 417 772 10,973  Level Kansas City Center
Sun 14:55:24 39.7831 -92.1367 264° West 419 776 10,973  Level Kansas City Center
Sun 14:56:26 39.7686 -92.3172 264° West 420 777 10,973 -133 Level Kansas City Center
Sun 14:57:28 39.7553 -92.4661 263° West 418 774 10,698 -280 Descending Kansas City Center
Sun 14:58:30 39.7442 -92.6144 264° West 416 771 10,394 -325 Descending Kansas City Center
Sun 14:59:32 39.7308 -92.7647 263° West 417 772 10,028 -516 Descending Kansas City Center
Sun 15:00:34 39.7169 -92.9167 263° West 422 782 9,327 -782 Descending Kansas City Center
Sun 15:01:36 39.7039 -93.0697 264° West 425 787 8,412 -1,047 Descending Kansas City Center
Sun 15:02:38 39.6889 -93.2508 264° West 421 779 7,163 -1,121 Descending Kansas City Center
Sun 15:03:40 39.6744 -93.3922 262° West 406 752 6,096 -1,018 Descending Kansas City Center
Sun 15:04:42 39.6628 -93.5314 264° West 398 737 5,060 -944 Descending Kansas City Center
Sun 15:05:44 39.6497 -93.6683 263° West 386 715 4,145 -796 Descending Kansas City Center
Sun 15:06:46 39.6356 -93.8150 263° West 365 676 3,414 -531 Descending Kansas City Center
Sun 15:07:48 39.6122 -93.9153 253° West 305 565 3,048 -413 Descending Kansas City Center
Sun 15:08:50 39.5633 -94.0089 236° Southwest 280 518 2,560 -295 Descending Kansas City Center
Sun 15:09:52 39.5258 -94.0886 239° Southwest 272 504 2,438 -74 Descending Kansas City Center
Sun 15:10:54 39.5081 -94.1936 258° West 268 496 2,408 -148 Descending Kansas City Center
Sun 15:11:56 39.4919 -94.2808 257° West 261 483 2,134 -162 Descending Kansas City Center
Sun 15:12:58 39.4753 -94.3781 258° West 250 463 2,073 -162 Descending Kansas City Center
Sun 15:14:00 39.4606 -94.4631 257° West 253 468 1,798 -310 Descending Kansas City Center
Sun 15:15:02 39.4436 -94.5586 257° West 246 455 1,433 -310 Descending Kansas City Center
Sun 15:16:04 39.3950 -94.6172 223° Southwest 248 459 1,158 -265 Descending Kansas City Center

Login

Don't have an account? Register now (free) for customized features, flight alerts, and more!